createdAt,value
2018-05-04T00:02:23.263Z,42.22
2018-05-04T00:04:55.827Z,42.42
2018-05-04T00:07:29.761Z,42.33
2018-05-04T00:10:03.829Z,42.34
2018-05-04T00:12:36.417Z,42.30
2018-05-04T00:15:07.655Z,42.39
2018-05-04T00:17:40.329Z,42.41
2018-05-04T00:20:11.653Z,42.37
2018-05-04T00:22:43.870Z,42.59
2018-05-04T00:25:16.526Z,42.39
2018-05-04T00:27:49.687Z,42.39
2018-05-04T00:30:21.936Z,42.33
2018-05-04T00:32:56.703Z,42.26
2018-05-04T00:35:28.942Z,42.31
2018-05-04T00:38:00.329Z,42.25
2018-05-04T00:40:32.818Z,42.24
2018-05-04T00:43:06.830Z,42.16
2018-05-04T00:45:39.094Z,42.18
2018-05-04T00:48:11.306Z,42.22
2018-05-04T00:50:42.637Z,41.98
2018-05-04T00:53:15.217Z,42.08
2018-05-04T00:55:50.062Z,42.01
2018-05-04T00:58:21.438Z,41.74
2018-05-04T01:00:54.122Z,41.70
2018-05-04T01:03:26.278Z,41.62
2018-05-04T01:06:00.196Z,41.55
2018-05-04T01:08:32.227Z,41.60
2018-05-04T01:11:04.525Z,41.60
2018-05-04T01:13:38.022Z,41.47
2018-05-04T01:16:11.960Z,41.58
2018-05-04T01:18:44.072Z,41.65
2018-05-04T01:21:18.231Z,41.67
2018-05-04T01:23:51.390Z,41.62
2018-05-04T01:26:25.614Z,41.64
2018-05-04T01:28:57.836Z,41.66
2018-05-04T01:31:31.809Z,41.66
2018-05-04T01:34:04.421Z,41.60
2018-05-04T01:36:38.347Z,41.73
2018-05-04T01:39:10.575Z,41.59
2018-05-04T01:41:42.363Z,41.86
2018-05-04T01:44:15.513Z,41.96
2018-05-04T01:46:46.906Z,41.79
2018-05-04T01:49:20.849Z,41.97
2018-05-04T01:51:54.749Z,42.16
2018-05-04T01:54:28.338Z,42.16
2018-05-04T01:56:59.707Z,42.03
2018-05-04T01:59:33.228Z,42.45
2018-05-04T02:02:06.390Z,42.48
2018-05-04T02:04:38.713Z,42.70
2018-05-04T02:07:12.227Z,42.69
2018-05-04T02:09:43.681Z,42.61
2018-05-04T02:12:17.595Z,42.30
2018-05-04T02:14:49.280Z,42.43
2018-05-04T02:17:22.411Z,42.28
2018-05-04T02:19:56.473Z,42.29
2018-05-04T02:22:28.123Z,42.08
2018-05-04T02:25:00.892Z,42.01
2018-05-04T02:27:35.137Z,42.04
2018-05-04T02:30:08.261Z,41.98
2018-05-04T02:32:42.213Z,41.92
2018-05-04T02:35:15.371Z,41.88
2018-05-04T02:37:49.765Z,42.18
2018-05-04T02:40:23.643Z,42.08
2018-05-04T02:42:57.870Z,42.08
2018-05-04T02:45:31.058Z,42.09
2018-05-04T02:48:03.340Z,42.22
2018-05-04T02:50:36.454Z,42.11
2018-05-04T02:53:09.665Z,42.07
2018-05-04T02:55:43.339Z,42.11
2018-05-04T02:58:17.230Z,42.07
2018-05-04T03:00:50.884Z,42.01
2018-05-04T03:03:24.814Z,41.68
2018-05-04T03:05:57.050Z,41.78
2018-05-04T03:08:30.522Z,41.91
2018-05-04T03:11:03.831Z,41.83
2018-05-04T03:13:37.733Z,41.91
2018-05-04T03:16:12.155Z,42.10
2018-05-04T03:18:46.062Z,42.15
2018-05-04T03:21:19.251Z,42.26
2018-05-04T03:23:51.476Z,42.49
2018-05-04T03:26:24.593Z,42.38
2018-05-04T03:28:56.876Z,42.29
2018-05-04T03:31:30.255Z,42.43
2018-05-04T03:34:03.425Z,43.10
2018-05-04T03:36:37.684Z,43.45
2018-05-04T03:39:11.806Z,43.25
2018-05-04T03:41:45.270Z,43.21
2018-05-04T03:44:19.265Z,43.29
2018-05-04T03:46:52.474Z,43.44
2018-05-04T03:49:25.993Z,43.65
2018-05-04T03:51:58.362Z,43.67
2018-05-04T03:54:31.705Z,43.70
2018-05-04T03:57:14.694Z,43.63
2018-05-04T03:59:58.677Z,44.11
2018-05-04T04:04:07.738Z,44.04
2018-05-04T04:06:42.616Z,44.18
2018-05-04T04:09:15.168Z,44.31
2018-05-04T04:11:48.289Z,44.07
2018-05-04T04:14:21.814Z,44.02
2018-05-04T04:16:54.155Z,43.97
2018-05-04T04:19:27.323Z,44.11
2018-05-04T04:22:01.511Z,43.96
2018-05-04T04:24:35.370Z,43.93
2018-05-04T04:27:08.672Z,43.71
2018-05-04T04:29:44.928Z,43.89
2018-05-04T04:32:18.074Z,43.83
2018-05-04T04:34:51.332Z,43.91
2018-05-04T04:37:24.477Z,43.76
2018-05-04T04:39:56.011Z,43.43
2018-05-04T04:42:28.517Z,43.26
2018-05-04T04:44:59.958Z,43.02
2018-05-04T04:47:31.285Z,43.01
2018-05-04T04:50:06.255Z,43.52
2018-05-04T04:52:38.549Z,43.35
2018-05-04T04:55:10.697Z,43.40
2018-05-04T04:57:42.883Z,43.02
2018-05-04T05:00:17.384Z,43.07
2018-05-04T05:02:51.749Z,42.61
2018-05-04T05:05:24.556Z,43.02
2018-05-04T05:07:57.691Z,42.49
2018-05-04T05:10:30.277Z,42.38
2018-05-04T05:13:04.103Z,42.38
2018-05-04T05:15:38.700Z,41.96
2018-05-04T05:18:13.162Z,41.75
2018-05-04T05:20:45.378Z,41.55
2018-05-04T05:23:20.956Z,41.47
2018-05-04T05:25:54.924Z,41.24
2018-05-04T05:28:28.957Z,40.91
2018-05-04T05:31:03.476Z,40.79
2018-05-04T05:33:37.544Z,40.87
2018-05-04T05:36:11.804Z,40.60
2018-05-04T05:38:44.964Z,40.36
2018-05-04T05:41:18.095Z,40.05
2018-05-04T05:43:52.751Z,39.62
2018-05-04T05:46:25.894Z,40.17
2018-05-04T05:48:58.024Z,40.42
2018-05-04T05:51:29.671Z,40.14
2018-05-04T05:54:02.794Z,40.08
2018-05-04T05:56:34.337Z,40.02
2018-05-04T05:59:07.489Z,39.73
2018-05-04T06:01:42.249Z,39.49
2018-05-04T06:04:16.285Z,39.34
2018-05-04T06:06:50.131Z,39.64
2018-05-04T06:09:23.334Z,39.43
2018-05-04T06:11:56.958Z,39.31
2018-05-04T06:14:30.791Z,39.26
2018-05-04T06:17:04.232Z,39.43
2018-05-04T06:19:37.506Z,38.94
2018-05-04T06:22:11.394Z,38.87
2018-05-04T06:24:44.092Z,38.81
2018-05-04T06:27:21.200Z,38.48
2018-05-04T06:29:55.342Z,38.24
2018-05-04T06:32:29.605Z,38.31
2018-05-04T06:35:02.699Z,38.46
2018-05-04T06:37:36.151Z,38.34
2018-05-04T06:40:08.242Z,37.87
2018-05-04T06:42:41.358Z,37.57
2018-05-04T06:45:16.072Z,37.73
2018-05-04T06:47:49.230Z,37.88
2018-05-04T06:50:26.174Z,38.21
2018-05-04T06:53:00.510Z,37.11
2018-05-04T06:58:12.968Z,37.07
2018-05-04T07:00:46.208Z,36.65
2018-05-04T07:03:19.799Z,36.83
2018-05-04T07:05:52.103Z,36.88
2018-05-04T07:08:25.992Z,36.38
2018-05-04T07:10:59.542Z,36.42
2018-05-04T07:13:33.445Z,35.97
2018-05-04T07:16:06.625Z,35.44
2018-05-04T07:18:41.560Z,35.22
2018-05-04T07:21:15.569Z,34.62
2018-05-04T07:23:47.825Z,34.66
2018-05-04T07:26:21.127Z,34.84
2018-05-04T07:28:55.075Z,34.62
2018-05-04T07:31:28.852Z,34.42
2018-05-04T07:34:01.119Z,34.83
2018-05-04T07:36:34.314Z,34.63
2018-05-04T07:39:08.989Z,33.90
2018-05-04T07:41:41.394Z,33.01
2018-05-04T07:44:23.963Z,33.30
2018-05-04T07:46:57.438Z,34.32
2018-05-04T07:49:28.872Z,34.15
2018-05-04T07:52:04.504Z,33.65
2018-05-04T07:54:42.957Z,33.24
2018-05-04T07:57:24.884Z,33.44
2018-05-04T07:59:58.226Z,33.50
2018-05-04T08:02:32.151Z,33.66
2018-05-04T08:05:05.525Z,34.16
2018-05-04T08:07:39.250Z,33.67
2018-05-04T08:10:14.159Z,33.61
2018-05-04T08:12:50.573Z,33.55
2018-05-04T08:15:22.814Z,33.13
2018-05-04T08:17:55.429Z,33.55
2018-05-04T08:20:29.017Z,34.47
2018-05-04T08:23:01.187Z,33.79
2018-05-04T08:25:32.528Z,34.01
2018-05-04T08:28:07.694Z,34.15
2018-05-04T08:30:39.560Z,34.32
2018-05-04T08:33:12.856Z,33.88
2018-05-04T08:35:46.512Z,34.05
2018-05-04T08:38:18.277Z,34.02
2018-05-04T08:40:55.028Z,33.40
2018-05-04T08:43:28.933Z,33.26
2018-05-04T08:46:00.350Z,33.99
2018-05-04T08:48:34.474Z,33.74
2018-05-04T08:51:06.598Z,33.56
2018-05-04T08:53:39.037Z,33.24
2018-05-04T08:56:11.680Z,32.80
2018-05-04T08:58:43.079Z,32.54
2018-05-04T09:01:15.495Z,32.50
2018-05-04T09:03:50.220Z,32.56
2018-05-04T09:06:23.773Z,33.05
2018-05-04T09:08:56.980Z,32.46
2018-05-04T09:11:32.449Z,32.64
2018-05-04T09:14:04.714Z,31.98
2018-05-04T09:16:36.259Z,32.45
2018-05-04T09:19:08.558Z,32.24
2018-05-04T09:21:41.280Z,32.06
2018-05-04T09:24:13.154Z,32.15
2018-05-04T09:26:44.545Z,31.94
2018-05-04T09:29:16.790Z,31.81
2018-05-04T09:31:48.219Z,32.05
2018-05-04T09:34:21.446Z,31.18
2018-05-04T09:36:54.357Z,31.02
2018-05-04T09:39:27.475Z,31.10
2018-05-04T09:42:00.671Z,30.98
2018-05-04T09:44:33.905Z,31.63
2018-05-04T09:47:06.267Z,31.15
2018-05-04T09:49:39.091Z,30.91
2018-05-04T09:52:11.608Z,30.71
2018-05-04T09:54:45.186Z,29.83
2018-05-04T09:57:17.892Z,29.55
2018-05-04T09:59:50.271Z,29.76
2018-05-04T10:02:25.591Z,29.22
2018-05-04T10:04:59.784Z,29.91
2018-05-04T10:07:34.616Z,30.73
2018-05-04T10:10:09.125Z,30.97
2018-05-04T10:12:42.855Z,30.20
2018-05-04T10:15:16.964Z,30.61
2018-05-04T10:17:49.181Z,30.64
2018-05-04T10:20:22.342Z,30.54
2018-05-04T10:22:58.764Z,30.60
2018-05-04T10:25:33.112Z,30.87
2018-05-04T10:28:07.230Z,30.54
2018-05-04T10:30:42.186Z,29.69
2018-05-04T10:33:16.298Z,29.69
2018-05-04T10:35:48.291Z,30.17
2018-05-04T10:38:21.692Z,29.58
2018-05-04T10:40:55.093Z,29.56
2018-05-04T10:43:29.104Z,29.06
2018-05-04T10:46:01.482Z,29.10
2018-05-04T10:48:35.514Z,29.27
2018-05-04T10:51:10.456Z,29.48
2018-05-04T10:53:44.380Z,29.36
2018-05-04T10:56:18.311Z,29.10
2018-05-04T10:58:51.070Z,28.65
2018-05-04T11:01:23.472Z,28.97
2018-05-04T11:03:59.060Z,29.35
2018-05-04T11:06:33.008Z,29.01
2018-05-04T11:09:07.723Z,28.26
2018-05-04T11:11:40.804Z,28.96
2018-05-04T11:14:14.972Z,28.85
2018-05-04T11:16:49.609Z,28.11
2018-05-04T11:19:23.459Z,28.77
2018-05-04T11:21:54.915Z,28.63
2018-05-04T11:24:29.319Z,27.92
2018-05-04T11:27:02.056Z,27.73
2018-05-04T11:29:33.857Z,27.37
2018-05-04T11:32:07.612Z,27.84
2018-05-04T11:34:49.630Z,27.95
2018-05-04T11:37:24.590Z,27.49
2018-05-04T11:39:57.713Z,27.25
2018-05-04T11:42:29.220Z,27.41
2018-05-04T11:45:03.467Z,27.85
2018-05-04T11:47:35.671Z,28.33
2018-05-04T11:50:07.176Z,28.09
2018-05-04T11:52:39.416Z,27.74
2018-05-04T11:55:11.280Z,28.05
2018-05-04T11:57:44.046Z,28.53
2018-05-04T12:00:17.248Z,28.29
2018-05-04T12:02:51.345Z,28.02
2018-05-04T12:05:25.527Z,27.40
2018-05-04T12:07:59.694Z,28.17
2018-05-04T12:10:32.043Z,28.18
2018-05-04T12:13:04.380Z,28.07
2018-05-04T12:15:37.032Z,27.53
2018-05-04T12:18:09.355Z,28.56
2018-05-04T12:20:41.611Z,27.94
2018-05-04T12:23:14.334Z,27.89
2018-05-04T12:25:48.138Z,28.37
2018-05-04T12:28:21.636Z,27.93
2018-05-04T12:30:53.230Z,28.02
2018-05-04T12:33:24.639Z,28.23
2018-05-04T12:35:56.006Z,27.34
2018-05-04T12:38:27.542Z,27.77
2018-05-04T12:41:02.359Z,27.40
2018-05-04T12:43:36.306Z,27.63
2018-05-04T12:46:08.590Z,27.49
2018-05-04T12:48:40.383Z,27.39
2018-05-04T12:51:12.152Z,28.14
2018-05-04T12:53:45.456Z,27.63
2018-05-04T12:56:17.816Z,27.17
2018-05-04T12:58:52.599Z,27.39
2018-05-04T13:01:27.175Z,27.66
2018-05-04T13:03:58.759Z,27.82
2018-05-04T13:06:30.189Z,27.32
2018-05-04T13:09:01.642Z,26.62
2018-05-04T13:11:33.890Z,27.06
2018-05-04T13:14:06.367Z,27.32
2018-05-04T13:16:40.271Z,27.20
2018-05-04T13:19:13.103Z,27.36
2018-05-04T13:21:45.339Z,26.97
2018-05-04T13:24:17.629Z,27.12
2018-05-04T13:26:49.269Z,26.45
2018-05-04T13:29:27.181Z,26.25
2018-05-04T13:32:00.562Z,26.85
2018-05-04T13:34:32.923Z,26.20
2018-05-04T13:37:06.661Z,25.72
2018-05-04T13:39:40.644Z,26.14
2018-05-04T13:42:14.036Z,25.69
2018-05-04T13:44:46.901Z,25.59
2018-05-04T13:47:20.570Z,25.04
2018-05-04T13:49:53.802Z,25.17
2018-05-04T13:52:27.458Z,25.53
2018-05-04T13:55:05.459Z,25.52
2018-05-04T14:00:55.536Z,24.56
2018-05-04T14:03:28.876Z,24.87
2018-05-04T14:06:02.591Z,24.84
2018-05-04T14:08:35.919Z,24.69
2018-05-04T14:11:09.188Z,23.91
2018-05-04T14:13:42.455Z,24.31
2018-05-04T14:16:15.667Z,23.99
2018-05-04T14:18:49.354Z,24.61
2018-05-04T14:21:21.906Z,24.53
2018-05-04T14:23:55.073Z,24.23
2018-05-04T14:26:28.817Z,24.36
2018-05-04T14:29:06.848Z,24.09
2018-05-04T14:31:42.540Z,23.72
2018-05-04T14:34:15.942Z,24.47
2018-05-04T14:36:47.308Z,23.75
2018-05-04T14:39:19.811Z,24.31
2018-05-04T14:41:52.123Z,24.28
2018-05-04T14:44:23.822Z,24.02
2018-05-04T14:46:57.126Z,23.75
2018-05-04T14:49:31.487Z,23.85
2018-05-04T14:52:03.143Z,24.36
2018-05-04T14:54:36.321Z,24.10
2018-05-04T14:57:07.813Z,24.39
2018-05-04T14:59:40.020Z,24.35
2018-05-04T15:02:15.627Z,24.65
2018-05-04T15:04:48.942Z,24.21
2018-05-04T15:07:22.361Z,23.79
2018-05-04T15:09:58.338Z,23.73
2018-05-04T15:12:31.468Z,24.12
2018-05-04T15:15:06.257Z,24.52
2018-05-04T15:17:41.667Z,23.88
2018-05-04T15:20:13.950Z,23.83
2018-05-04T15:22:47.163Z,23.39
2018-05-04T15:25:21.135Z,23.66
2018-05-04T15:27:54.562Z,23.79
2018-05-04T15:30:28.429Z,24.30
2018-05-04T15:33:00.953Z,24.34
2018-05-04T15:35:34.232Z,24.39
2018-05-04T15:38:07.390Z,24.95
2018-05-04T15:40:40.359Z,25.60
2018-05-04T15:43:14.287Z,25.80
2018-05-04T15:45:52.838Z,25.65
2018-05-04T15:48:29.589Z,25.77
2018-05-04T15:51:06.953Z,26.17
2018-05-04T15:53:40.140Z,25.89
2018-05-04T15:56:13.589Z,25.99
2018-05-04T15:58:48.250Z,26.71
2018-05-04T16:01:21.537Z,27.05
2018-05-04T16:03:54.725Z,26.78
2018-05-04T16:06:30.188Z,26.21
2018-05-04T16:09:01.636Z,26.32
2018-05-04T16:11:35.627Z,26.37
2018-05-04T16:14:08.402Z,26.87
2018-05-04T16:16:42.366Z,27.08
2018-05-04T16:19:14.571Z,26.62
2018-05-04T16:21:48.484Z,26.71
2018-05-04T16:24:19.946Z,26.74
2018-05-04T16:26:53.546Z,26.66
2018-05-04T16:29:25.196Z,26.63
2018-05-04T16:31:59.094Z,26.97
2018-05-04T16:34:32.885Z,27.00
2018-05-04T16:37:05.210Z,26.36
2018-05-04T16:39:37.523Z,27.31
2018-05-04T16:42:11.096Z,27.66
2018-05-04T16:44:43.405Z,27.80
2018-05-04T16:47:20.672Z,28.10
2018-05-04T16:49:53.835Z,28.44
2018-05-04T16:52:26.237Z,28.34
2018-05-04T16:54:58.582Z,28.63
2018-05-04T16:57:33.122Z,28.88
2018-05-04T17:00:07.904Z,28.86
2018-05-04T17:02:39.352Z,28.79
2018-05-04T17:05:11.668Z,29.35
2018-05-04T17:07:43.132Z,29.02
2018-05-04T17:10:14.744Z,29.54
2018-05-04T17:12:46.290Z,29.60
2018-05-04T17:15:19.643Z,29.36
2018-05-04T17:17:54.622Z,29.38
2018-05-04T17:20:28.947Z,29.97
2018-05-04T17:23:01.195Z,30.13
2018-05-04T17:25:33.425Z,30.15
2018-05-04T17:28:08.000Z,30.76
2018-05-04T17:30:39.360Z,30.75
2018-05-04T17:33:10.825Z,30.68
2018-05-04T17:35:42.526Z,31.32
2018-05-04T17:38:14.839Z,31.79
2018-05-04T17:40:46.362Z,32.43
2018-05-04T17:43:17.591Z,33.46
2018-05-04T17:45:49.469Z,34.30
2018-05-04T17:48:21.666Z,35.22
2018-05-04T17:50:53.191Z,35.89
2018-05-04T17:53:24.777Z,36.06
2018-05-04T17:55:56.474Z,36.51
2018-05-04T17:58:28.766Z,36.84
2018-05-04T18:01:00.091Z,37.01
2018-05-04T18:03:31.719Z,37.13
2018-05-04T18:06:03.089Z,36.94
2018-05-04T18:08:35.234Z,37.25
2018-05-04T18:11:06.538Z,37.75
2018-05-04T18:13:37.956Z,38.22
2018-05-04T18:16:09.757Z,38.25
2018-05-04T18:18:41.216Z,38.68
2018-05-04T18:21:12.625Z,38.77
2018-05-04T18:23:44.020Z,38.69
2018-05-04T18:26:15.507Z,39.28
2018-05-04T18:28:47.973Z,39.57
2018-05-04T18:31:19.233Z,40.07
2018-05-04T18:33:50.568Z,40.33
2018-05-04T18:36:22.187Z,40.36
2018-05-04T18:38:53.514Z,40.47
2018-05-04T18:41:26.991Z,40.59
2018-05-04T18:43:59.208Z,41.01
2018-05-04T18:46:30.832Z,41.12
2018-05-04T18:49:02.607Z,41.51
2018-05-04T18:51:35.887Z,41.42
2018-05-04T18:54:08.778Z,41.79
2018-05-04T18:56:40.251Z,41.74
2018-05-04T18:59:12.555Z,41.52
2018-05-04T19:01:44.323Z,41.77
2018-05-04T19:04:15.723Z,41.83
2018-05-04T19:06:47.114Z,41.82
2018-05-04T19:09:18.559Z,41.90
2018-05-04T19:11:50.673Z,41.64
2018-05-04T19:14:23.277Z,41.67
2018-05-04T19:16:54.608Z,42.04
2018-05-04T19:19:26.302Z,42.36
2018-05-04T19:21:58.158Z,42.54
2018-05-04T19:24:30.426Z,42.32
2018-05-04T19:27:01.773Z,42.38
2018-05-04T19:29:34.344Z,42.54
2018-05-04T19:32:05.726Z,42.42
2018-05-04T19:34:37.938Z,42.24
2018-05-04T19:37:09.795Z,42.00
2018-05-04T19:39:41.101Z,41.84
2018-05-04T19:42:13.310Z,42.20
2018-05-04T19:44:44.797Z,42.26
2018-05-04T19:47:16.651Z,42.50
2018-05-04T19:49:49.263Z,42.30
2018-05-04T19:52:20.656Z,42.50
2018-05-04T19:54:52.093Z,42.48
2018-05-04T19:57:23.948Z,42.33
2018-05-04T19:59:55.362Z,42.34
2018-05-04T20:02:26.928Z,42.59
2018-05-04T20:04:58.273Z,42.53
2018-05-04T20:07:29.743Z,42.42
2018-05-04T20:10:02.406Z,42.23
2018-05-04T20:12:33.984Z,42.36
2018-05-04T20:15:06.946Z,42.27
2018-05-04T20:17:41.915Z,42.23
2018-05-04T20:20:14.099Z,42.40
2018-05-04T20:22:46.048Z,42.68
2018-05-04T20:25:17.532Z,42.66
2018-05-04T20:27:48.933Z,42.40
2018-05-04T20:30:20.380Z,42.29
2018-05-04T20:32:52.651Z,42.41
2018-05-04T20:35:26.604Z,42.49
2018-05-04T20:37:57.964Z,42.53
2018-05-04T20:40:30.085Z,42.51
2018-05-04T20:43:02.141Z,42.50
2018-05-04T20:45:34.376Z,42.47
2018-05-04T20:48:06.221Z,42.68
2018-05-04T20:50:37.676Z,42.82
2018-05-04T20:53:09.999Z,42.54
2018-05-04T20:55:42.784Z,42.49
2018-05-04T20:58:14.397Z,42.56
2018-05-04T21:00:46.089Z,42.72
2018-05-04T21:03:17.521Z,42.69
2018-05-04T21:05:49.792Z,43.10
2018-05-04T21:08:23.696Z,43.34
2018-05-04T21:10:55.131Z,43.42
2018-05-04T21:13:26.864Z,43.41
2018-05-04T21:15:58.713Z,43.50
2018-05-04T21:18:30.237Z,44.13
2018-05-04T21:21:02.522Z,44.07
2018-05-04T21:23:35.118Z,44.33
2018-05-04T21:26:06.645Z,44.02
2018-05-04T21:28:38.885Z,43.90
2018-05-04T21:31:11.547Z,43.92
2018-05-04T21:33:42.979Z,44.04
2018-05-04T21:36:14.393Z,43.80
2018-05-04T21:38:46.765Z,43.77
2018-05-04T21:41:18.100Z,43.80
2018-05-04T21:43:50.109Z,43.78
2018-05-04T21:46:21.450Z,44.08
2018-05-04T21:48:56.459Z,44.19
2018-05-04T21:51:28.833Z,44.03
2018-05-04T21:54:00.108Z,44.16
2018-05-04T21:56:31.486Z,44.02
2018-05-04T21:59:02.966Z,43.79
2018-05-04T22:01:34.791Z,43.94
2018-05-04T22:04:06.210Z,44.04
2018-05-04T22:06:37.581Z,44.05
2018-05-04T22:09:11.047Z,44.01
2018-05-04T22:11:42.455Z,43.77
2018-05-04T22:14:13.738Z,43.64
2018-05-04T22:16:45.581Z,43.84
2018-05-04T22:19:17.784Z,43.78
2018-05-04T22:21:49.298Z,43.91
2018-05-04T22:24:22.437Z,44.17
2018-05-04T22:26:55.306Z,44.58
2018-05-04T22:29:27.043Z,44.95
2018-05-04T22:31:58.436Z,45.29
2018-05-04T22:34:30.003Z,45.48
2018-05-04T22:37:01.299Z,45.53
2018-05-04T22:39:32.559Z,45.68
2018-05-04T22:42:04.689Z,45.73
2018-05-04T22:44:36.021Z,45.85
2018-05-04T22:47:08.402Z,45.71
2018-05-04T22:49:40.209Z,46.05
2018-05-04T22:52:11.542Z,46.06
2018-05-04T22:54:45.085Z,46.05
2018-05-04T22:57:16.416Z,46.35
2018-05-04T22:59:47.865Z,46.35
2018-05-04T23:02:19.579Z,46.32
2018-05-04T23:04:50.916Z,46.40
2018-05-04T23:07:22.311Z,46.47
2018-05-04T23:09:54.244Z,46.49
2018-05-04T23:12:25.702Z,46.49
2018-05-04T23:14:57.071Z,46.60
2018-05-04T23:17:28.836Z,46.65
2018-05-04T23:20:00.935Z,46.71
2018-05-04T23:22:34.700Z,46.64
2018-05-04T23:25:06.040Z,46.88
2018-05-04T23:27:37.512Z,47.02
2018-05-04T23:30:09.301Z,46.64
2018-05-04T23:32:42.569Z,46.41
2018-05-04T23:35:14.059Z,46.38
2018-05-04T23:37:45.317Z,46.55
2018-05-04T23:40:16.675Z,46.34
2018-05-04T23:42:48.308Z,46.24
2018-05-04T23:45:20.390Z,46.54
2018-05-04T23:47:51.871Z,46.42
2018-05-04T23:50:24.023Z,46.33
2018-05-04T23:52:56.149Z,46.41
2018-05-04T23:55:29.091Z,46.47
2018-05-04T23:58:00.527Z,46.07
